SBD1362 KPHX-KPRC
Flight info
| Callsign | SBD1362 |
|---|---|
| Flight time | 0h 51m |
| Altitude | 14000 |
| Route | PXR V105 DRK |
| Aircraft | A320/M-SDE3FGHIRWY/LB1 |
Departure
| Time | 2026-05-04 03:20 |
|---|---|
| Airport | Phoenix Sky Harbor International Airport (KPHX) |
Arrival
| Time | 2026-05-04 04:11 |
|---|---|
| Airport | Prescott Regional Airport - Ernest A. Love Field (KPRC) |
| Time | Latitude | Longitude | Altitude | Speed | Heading |
|---|---|---|---|---|---|
| 2026-05-04 03:05 | 33.43732 | -111.99376 | 1137 ft | 0 kts | 270° |
| 2026-05-04 03:10 | 33.43732 | -111.99360 | 1137 ft | 2 kts | 270° |
| 2026-05-04 03:10 | 33.43731 | -111.99341 | 1137 ft | 2 kts | 270° |
| 2026-05-04 03:10 | 33.43731 | -111.99324 | 1137 ft | 1 kts | 272° |
| 2026-05-04 03:10 | 33.43727 | -111.99312 | 1137 ft | 1 kts | 332° |
| 2026-05-04 03:11 | 33.43722 | -111.99310 | 1137 ft | 1 kts | 357° |
| 2026-05-04 03:11 | 33.43759 | -111.99311 | 1137 ft | 7 kts | 360° |
| 2026-05-04 03:11 | 33.43795 | -111.99311 | 1138 ft | 2 kts | 0° |
| 2026-05-04 03:11 | 33.43800 | -111.99310 | 1138 ft | 0 kts | 0° |
| 2026-05-04 03:13 | 33.43802 | -111.99310 | 1138 ft | 1 kts | 0° |
| 2026-05-04 03:13 | 33.43818 | -111.99310 | 1138 ft | 2 kts | 360° |
| 2026-05-04 03:14 | 33.43840 | -111.99310 | 1139 ft | 8 kts | 360° |
| 2026-05-04 03:14 | 33.43897 | -111.99291 | 1140 ft | 8 kts | 56° |
| 2026-05-04 03:14 | 33.43869 | -111.99232 | 1139 ft | 11 kts | 174° |
| 2026-05-04 03:14 | 33.43778 | -111.99230 | 1138 ft | 15 kts | 181° |
| 2026-05-04 03:15 | 33.43665 | -111.99230 | 1135 ft | 16 kts | 180° |
| 2026-05-04 03:15 | 33.43549 | -111.99229 | 1133 ft | 16 kts | 180° |
| 2026-05-04 03:15 | 33.43432 | -111.99230 | 1132 ft | 16 kts | 180° |
| 2026-05-04 03:15 | 33.43322 | -111.99229 | 1131 ft | 15 kts | 179° |
| 2026-05-04 03:16 | 33.43250 | -111.99231 | 1131 ft | 1 kts | 190° |
| 2026-05-04 03:16 | 33.43248 | -111.99231 | 1131 ft | 2 kts | 192° |
| 2026-05-04 03:16 | 33.43227 | -111.99244 | 1131 ft | 3 kts | 220° |
| 2026-05-04 03:16 | 33.43215 | -111.99257 | 1131 ft | 1 kts | 223° |
| 2026-05-04 03:17 | 33.43211 | -111.99262 | 1131 ft | 0 kts | 223° |
| 2026-05-04 03:17 | 33.43203 | -111.99270 | 1131 ft | 3 kts | 223° |
| 2026-05-04 03:18 | 33.43186 | -111.99289 | 1132 ft | 3 kts | 223° |
| 2026-05-04 03:18 | 33.43151 | -111.99328 | 1132 ft | 7 kts | 223° |
| 2026-05-04 03:18 | 33.43110 | -111.99370 | 1132 ft | 7 kts | 233° |
| 2026-05-04 03:18 | 33.43103 | -111.99439 | 1130 ft | 10 kts | 270° |
| 2026-05-04 03:19 | 33.43103 | -111.99703 | 1129 ft | 63 kts | 268° |
| 2026-05-04 03:19 | 33.43104 | -112.00479 | 1131 ft | 122 kts | 270° |
| 2026-05-04 03:19 | 33.43105 | -112.01709 | 1141 ft | 170 kts | 266° |
| 2026-05-04 03:19 | 33.43108 | -112.03175 | 1558 ft | 180 kts | 266° |
| 2026-05-04 03:20 | 33.43097 | -112.04646 | 2190 ft | 176 kts | 265° |
| 2026-05-04 03:20 | 33.43114 | -112.06085 | 2722 ft | 173 kts | 263° |
| 2026-05-04 03:20 | 33.42928 | -112.07503 | 3071 ft | 179 kts | 252° |
| 2026-05-04 03:20 | 33.42931 | -112.09066 | 3311 ft | 206 kts | 286° |
| 2026-05-04 03:21 | 33.43930 | -112.10407 | 3548 ft | 237 kts | 328° |
| 2026-05-04 03:21 | 33.45633 | -112.10814 | 3768 ft | 265 kts | 359° |
| 2026-05-04 03:21 | 33.47536 | -112.10742 | 4101 ft | 281 kts | 356° |
| 2026-05-04 03:21 | 33.49539 | -112.10873 | 4497 ft | 294 kts | 351° |
| 2026-05-04 03:22 | 33.51576 | -112.11217 | 5111 ft | 296 kts | 347° |
| 2026-05-04 03:22 | 33.53594 | -112.11691 | 5778 ft | 297 kts | 345° |
| 2026-05-04 03:22 | 33.55617 | -112.12236 | 6392 ft | 301 kts | 343° |
| 2026-05-04 03:22 | 33.57663 | -112.12830 | 7002 ft | 304 kts | 343° |
| 2026-05-04 03:23 | 33.59717 | -112.13443 | 7663 ft | 306 kts | 343° |
| 2026-05-04 03:23 | 33.61784 | -112.14066 | 8267 ft | 309 kts | 343° |
| 2026-05-04 03:23 | 33.63883 | -112.14700 | 8861 ft | 312 kts | 344° |
| 2026-05-04 03:23 | 33.65995 | -112.15339 | 9478 ft | 314 kts | 343° |
| 2026-05-04 03:24 | 33.68128 | -112.15985 | 10096 ft | 316 kts | 344° |
| 2026-05-04 03:24 | 33.70275 | -112.16633 | 10607 ft | 323 kts | 344° |
| 2026-05-04 03:24 | 33.72509 | -112.17309 | 10879 ft | 338 kts | 343° |
| 2026-05-04 03:24 | 33.74847 | -112.18020 | 11140 ft | 353 kts | 343° |
| 2026-05-04 03:25 | 33.77277 | -112.18760 | 11399 ft | 367 kts | 343° |
| 2026-05-04 03:25 | 33.79772 | -112.19638 | 11643 ft | 380 kts | 338° |
| 2026-05-04 03:25 | 33.82270 | -112.20835 | 11906 ft | 391 kts | 332° |
| 2026-05-04 03:25 | 33.84748 | -112.22301 | 12138 ft | 403 kts | 330° |
| 2026-05-04 03:26 | 33.87270 | -112.23871 | 12465 ft | 411 kts | 329° |
| 2026-05-04 03:26 | 33.89826 | -112.25460 | 12998 ft | 414 kts | 329° |
| 2026-05-04 03:26 | 33.92398 | -112.27048 | 13530 ft | 416 kts | 329° |
| 2026-05-04 03:26 | 33.94982 | -112.28641 | 13987 ft | 416 kts | 329° |
| 2026-05-04 03:27 | 33.97568 | -112.30237 | 14159 ft | 416 kts | 329° |
| 2026-05-04 03:27 | 34.00152 | -112.31829 | 14166 ft | 414 kts | 329° |
| 2026-05-04 03:27 | 34.02721 | -112.33417 | 14171 ft | 414 kts | 329° |
| 2026-05-04 03:27 | 34.05297 | -112.35007 | 14177 ft | 414 kts | 329° |
| 2026-05-04 03:28 | 34.07874 | -112.36602 | 14187 ft | 415 kts | 329° |
| 2026-05-04 03:28 | 34.10449 | -112.38194 | 14193 ft | 415 kts | 329° |
| 2026-05-04 03:28 | 34.13035 | -112.39791 | 14201 ft | 416 kts | 329° |
| 2026-05-04 03:28 | 34.15625 | -112.41395 | 14203 ft | 417 kts | 329° |
| 2026-05-04 03:29 | 34.18213 | -112.43003 | 14201 ft | 416 kts | 329° |
| 2026-05-04 03:29 | 34.20790 | -112.44603 | 14212 ft | 416 kts | 329° |
| 2026-05-04 03:29 | 34.23375 | -112.46206 | 14212 ft | 417 kts | 329° |
| 2026-05-04 03:29 | 34.25969 | -112.47813 | 14225 ft | 417 kts | 330° |
| 2026-05-04 03:30 | 34.28702 | -112.49070 | 14231 ft | 422 kts | 342° |
| 2026-05-04 03:30 | 34.31609 | -112.49665 | 14250 ft | 426 kts | 354° |
| 2026-05-04 03:30 | 34.34584 | -112.49675 | 14260 ft | 427 kts | 0° |
| 2026-05-04 03:30 | 34.37556 | -112.49512 | 14270 ft | 427 kts | 1° |
| 2026-05-04 03:31 | 34.40513 | -112.49337 | 14267 ft | 425 kts | 1° |
| 2026-05-04 03:31 | 34.43475 | -112.49185 | 14277 ft | 426 kts | 1° |
| 2026-05-04 03:31 | 34.46435 | -112.49051 | 14281 ft | 424 kts | 1° |
| 2026-05-04 03:31 | 34.49391 | -112.48926 | 14284 ft | 424 kts | 0° |
| 2026-05-04 03:32 | 34.52356 | -112.48803 | 14280 ft | 426 kts | 0° |
| 2026-05-04 03:32 | 34.55344 | -112.48685 | 14284 ft | 426 kts | 0° |
| 2026-05-04 03:32 | 34.58316 | -112.48577 | 14285 ft | 426 kts | 0° |
| 2026-05-04 03:32 | 34.61286 | -112.48474 | 14269 ft | 424 kts | 0° |
| 2026-05-04 03:33 | 34.64244 | -112.48369 | 14268 ft | 424 kts | 0° |
| 2026-05-04 03:33 | 34.67213 | -112.48275 | 14277 ft | 425 kts | 0° |
| 2026-05-04 03:33 | 34.70181 | -112.48180 | 14274 ft | 427 kts | 0° |
| 2026-05-04 03:33 | 34.73168 | -112.48078 | 14273 ft | 426 kts | 2° |
| 2026-05-04 03:34 | 34.76078 | -112.47445 | 14190 ft | 421 kts | 18° |
| 2026-05-04 03:34 | 34.78667 | -112.45892 | 14005 ft | 408 kts | 36° |
| 2026-05-04 03:34 | 34.80930 | -112.43905 | 13794 ft | 390 kts | 39° |
| 2026-05-04 03:34 | 34.83037 | -112.41946 | 13462 ft | 371 kts | 40° |
| 2026-05-04 03:35 | 34.85042 | -112.40088 | 13152 ft | 353 kts | 40° |
| 2026-05-04 03:35 | 34.86958 | -112.38324 | 12860 ft | 336 kts | 40° |
| 2026-05-04 03:35 | 34.88791 | -112.36633 | 12387 ft | 328 kts | 40° |
| 2026-05-04 03:35 | 34.90587 | -112.34963 | 11933 ft | 320 kts | 40° |
| 2026-05-04 03:36 | 34.92317 | -112.33351 | 11663 ft | 306 kts | 40° |
| 2026-05-04 03:36 | 34.93973 | -112.31819 | 11413 ft | 292 kts | 40° |
| 2026-05-04 03:36 | 34.95576 | -112.30336 | 11016 ft | 286 kts | 40° |
| 2026-05-04 03:36 | 34.97149 | -112.28862 | 10553 ft | 284 kts | 39° |
| 2026-05-04 03:37 | 34.98700 | -112.27392 | 10093 ft | 281 kts | 44° |
| 2026-05-04 03:37 | 34.99909 | -112.25575 | 9621 ft | 275 kts | 71° |
| 2026-05-04 03:37 | 35.00250 | -112.23381 | 9433 ft | 255 kts | 103° |
| 2026-05-04 03:37 | 34.99710 | -112.21439 | 9320 ft | 236 kts | 130° |
| 2026-05-04 03:38 | 34.98683 | -112.19891 | 9331 ft | 234 kts | 138° |
| 2026-05-04 03:38 | 34.97531 | -112.18511 | 9318 ft | 231 kts | 146° |
| 2026-05-04 03:38 | 34.96248 | -112.17332 | 9315 ft | 230 kts | 149° |
| 2026-05-04 03:38 | 34.94946 | -112.16203 | 9317 ft | 228 kts | 149° |
| 2026-05-04 03:39 | 34.93634 | -112.15113 | 9298 ft | 227 kts | 159° |
| 2026-05-04 03:39 | 34.92143 | -112.14721 | 9284 ft | 219 kts | 189° |
| 2026-05-04 03:39 | 34.90698 | -112.15285 | 9309 ft | 219 kts | 208° |
| 2026-05-04 03:39 | 34.89445 | -112.16332 | 9305 ft | 214 kts | 218° |
| 2026-05-04 03:40 | 34.88358 | -112.17507 | 9284 ft | 202 kts | 220° |
| 2026-05-04 03:40 | 34.87341 | -112.18650 | 9396 ft | 199 kts | 220° |
| 2026-05-04 03:40 | 34.86321 | -112.19782 | 9338 ft | 196 kts | 219° |
| 2026-05-04 03:40 | 34.85302 | -112.20890 | 9317 ft | 196 kts | 219° |
| 2026-05-04 03:41 | 34.84279 | -112.21989 | 9296 ft | 196 kts | 218° |
| 2026-05-04 03:41 | 34.83250 | -112.23083 | 9122 ft | 196 kts | 219° |
| 2026-05-04 03:41 | 34.82220 | -112.24176 | 8875 ft | 197 kts | 218° |
| 2026-05-04 03:41 | 34.81188 | -112.25267 | 8632 ft | 197 kts | 219° |
| 2026-05-04 03:42 | 34.80152 | -112.26359 | 8383 ft | 198 kts | 220° |
| 2026-05-04 03:42 | 34.79112 | -112.27457 | 8132 ft | 198 kts | 219° |
| 2026-05-04 03:42 | 34.78073 | -112.28554 | 7887 ft | 198 kts | 220° |
| 2026-05-04 03:42 | 34.77034 | -112.29654 | 7628 ft | 198 kts | 220° |
| 2026-05-04 03:43 | 34.76017 | -112.30731 | 7361 ft | 188 kts | 220° |
| 2026-05-04 03:43 | 34.75071 | -112.31735 | 7138 ft | 175 kts | 220° |
| 2026-05-04 03:43 | 34.74196 | -112.32684 | 6897 ft | 161 kts | 220° |
| 2026-05-04 03:43 | 34.73377 | -112.33539 | 6686 ft | 152 kts | 220° |
| 2026-05-04 03:44 | 34.72574 | -112.34371 | 6508 ft | 151 kts | 220° |
| 2026-05-04 03:44 | 34.71778 | -112.35202 | 6349 ft | 150 kts | 220° |
| 2026-05-04 03:44 | 34.71000 | -112.36052 | 6165 ft | 150 kts | 222° |
| 2026-05-04 03:44 | 34.70222 | -112.36896 | 5965 ft | 149 kts | 220° |
| 2026-05-04 03:45 | 34.69428 | -112.37708 | 5764 ft | 149 kts | 221° |
| 2026-05-04 03:45 | 34.68650 | -112.38539 | 5608 ft | 149 kts | 221° |
| 2026-05-04 03:45 | 34.67878 | -112.39370 | 5382 ft | 148 kts | 221° |
| 2026-05-04 03:45 | 34.67107 | -112.40194 | 5219 ft | 147 kts | 219° |
| 2026-05-04 03:46 | 34.66331 | -112.41007 | 5058 ft | 147 kts | 222° |
| 2026-05-04 03:46 | 34.65591 | -112.41802 | 5015 ft | 131 kts | 221° |
| 2026-05-04 03:46 | 34.64871 | -112.42562 | 5265 ft | 145 kts | 221° |
| 2026-05-04 03:46 | 34.64092 | -112.43411 | 5746 ft | 155 kts | 222° |
| 2026-05-04 03:47 | 34.63455 | -112.44426 | 6376 ft | 153 kts | 252° |
| 2026-05-04 03:47 | 34.63529 | -112.45700 | 6728 ft | 161 kts | 294° |
| 2026-05-04 03:47 | 34.64204 | -112.46832 | 7006 ft | 172 kts | 307° |
| 2026-05-04 03:47 | 34.65050 | -112.47940 | 7229 ft | 186 kts | 309° |
| 2026-05-04 03:48 | 34.65979 | -112.49109 | 7486 ft | 199 kts | 310° |
| 2026-05-04 03:48 | 34.67016 | -112.50309 | 7746 ft | 216 kts | 323° |
| 2026-05-04 03:48 | 34.68487 | -112.50916 | 7991 ft | 236 kts | 357° |
| 2026-05-04 03:48 | 34.70129 | -112.50469 | 8229 ft | 252 kts | 28° |
| 2026-05-04 03:49 | 34.71647 | -112.49271 | 8241 ft | 269 kts | 38° |
| 2026-05-04 03:49 | 34.73157 | -112.47868 | 8230 ft | 275 kts | 39° |
| 2026-05-04 03:49 | 34.74662 | -112.46421 | 8255 ft | 276 kts | 40° |
| 2026-05-04 03:49 | 34.76167 | -112.44963 | 8266 ft | 277 kts | 40° |
| 2026-05-04 03:50 | 34.77639 | -112.43524 | 8260 ft | 265 kts | 44° |
| 2026-05-04 03:50 | 34.78688 | -112.41804 | 8235 ft | 246 kts | 75° |
| 2026-05-04 03:50 | 34.78867 | -112.39839 | 8258 ft | 230 kts | 108° |
| 2026-05-04 03:50 | 34.78213 | -112.38131 | 8287 ft | 220 kts | 133° |
| 2026-05-04 03:51 | 34.77234 | -112.36746 | 8198 ft | 214 kts | 139° |
| 2026-05-04 03:51 | 34.76157 | -112.35524 | 7952 ft | 207 kts | 143° |
| 2026-05-04 03:51 | 34.75077 | -112.34438 | 7604 ft | 198 kts | 152° |
| 2026-05-04 03:51 | 34.73811 | -112.33949 | 7136 ft | 191 kts | 184° |
| 2026-05-04 03:52 | 34.72562 | -112.34406 | 6682 ft | 190 kts | 213° |
| 2026-05-04 03:52 | 34.71584 | -112.35425 | 6388 ft | 180 kts | 220° |
| 2026-05-04 03:52 | 34.70665 | -112.36392 | 6123 ft | 170 kts | 217° |
| 2026-05-04 03:52 | 34.69799 | -112.37309 | 5878 ft | 161 kts | 221° |
| 2026-05-04 03:53 | 34.68971 | -112.38199 | 5606 ft | 157 kts | 221° |
| 2026-05-04 03:53 | 34.68151 | -112.39076 | 5446 ft | 157 kts | 221° |
| 2026-05-04 03:53 | 34.67327 | -112.39950 | 5266 ft | 157 kts | 221° |
| 2026-05-04 03:53 | 34.66508 | -112.40820 | 5074 ft | 155 kts | 222° |
| 2026-05-04 03:54 | 34.65704 | -112.41674 | 4996 ft | 146 kts | 223° |
| 2026-05-04 03:54 | 34.64946 | -112.42476 | 5169 ft | 152 kts | 221° |
| 2026-05-04 03:54 | 34.64236 | -112.43467 | 5648 ft | 162 kts | 244° |
| 2026-05-04 03:54 | 34.63765 | -112.44692 | 6324 ft | 162 kts | 231° |
| 2026-05-04 03:55 | 34.62886 | -112.45510 | 6929 ft | 167 kts | 206° |
| 2026-05-04 03:55 | 34.61742 | -112.46091 | 7257 ft | 192 kts | 201° |
| 2026-05-04 03:55 | 34.60396 | -112.46685 | 7300 ft | 218 kts | 200° |
| 2026-05-04 03:55 | 34.58897 | -112.47304 | 7228 ft | 233 kts | 194° |
| 2026-05-04 03:56 | 34.57265 | -112.47289 | 7248 ft | 241 kts | 164° |
| 2026-05-04 03:56 | 34.55816 | -112.46245 | 7291 ft | 247 kts | 141° |
| 2026-05-04 03:56 | 34.54599 | -112.44770 | 7286 ft | 248 kts | 136° |
| 2026-05-04 03:56 | 34.53479 | -112.43174 | 7283 ft | 250 kts | 124° |
| 2026-05-04 03:57 | 34.52937 | -112.41159 | 7273 ft | 258 kts | 94° |
| 2026-05-04 03:57 | 34.53284 | -112.39052 | 7264 ft | 254 kts | 63° |
| 2026-05-04 03:57 | 34.54360 | -112.37422 | 7268 ft | 242 kts | 44° |
| 2026-05-04 03:57 | 34.55615 | -112.36093 | 7311 ft | 235 kts | 40° |
| 2026-05-04 03:58 | 34.58178 | -112.34472 | 7225 ft | 192 kts | 350° |
| 2026-05-04 03:58 | 34.59372 | -112.35050 | 7276 ft | 181 kts | 318° |
| 2026-05-04 03:58 | 34.60223 | -112.36088 | 7077 ft | 170 kts | 304° |
| 2026-05-04 03:59 | 34.60946 | -112.37193 | 6673 ft | 167 kts | 302° |
| 2026-05-04 03:59 | 34.61633 | -112.38323 | 6223 ft | 168 kts | 299° |
| 2026-05-04 03:59 | 34.62363 | -112.39413 | 5814 ft | 166 kts | 308° |
| 2026-05-04 03:59 | 34.63176 | -112.40386 | 5466 ft | 163 kts | 314° |
| 2026-05-04 04:00 | 34.63990 | -112.41323 | 5215 ft | 160 kts | 315° |
| 2026-05-04 04:00 | 34.64786 | -112.42233 | 5032 ft | 147 kts | 313° |
| 2026-05-04 04:00 | 34.65530 | -112.43103 | 5186 ft | 153 kts | 312° |
| 2026-05-04 04:00 | 34.66323 | -112.44034 | 5539 ft | 167 kts | 312° |
| 2026-05-04 04:01 | 34.67183 | -112.45034 | 6098 ft | 174 kts | 312° |
| 2026-05-04 04:01 | 34.68051 | -112.46039 | 6780 ft | 174 kts | 311° |
| 2026-05-04 04:01 | 34.68925 | -112.47047 | 7421 ft | 174 kts | 311° |
| 2026-05-04 04:01 | 34.69805 | -112.48067 | 7803 ft | 177 kts | 311° |
| 2026-05-04 04:02 | 34.70711 | -112.49116 | 8149 ft | 182 kts | 310° |
| 2026-05-04 04:02 | 34.71631 | -112.50183 | 8530 ft | 184 kts | 310° |
| 2026-05-04 04:02 | 34.72563 | -112.51261 | 8921 ft | 186 kts | 310° |
| 2026-05-04 04:02 | 34.73510 | -112.52360 | 9234 ft | 194 kts | 310° |
| 2026-05-04 04:03 | 34.74541 | -112.53566 | 9298 ft | 219 kts | 310° |
| 2026-05-04 04:03 | 34.75711 | -112.54924 | 9318 ft | 246 kts | 314° |
| 2026-05-04 04:03 | 34.77276 | -112.55978 | 9255 ft | 273 kts | 343° |
| 2026-05-04 04:03 | 34.79197 | -112.56048 | 9236 ft | 283 kts | 14° |
| 2026-05-04 04:04 | 34.80997 | -112.55078 | 9288 ft | 285 kts | 34° |
| 2026-05-04 04:04 | 34.82608 | -112.53683 | 9302 ft | 283 kts | 39° |
| 2026-05-04 04:04 | 34.84197 | -112.52181 | 9315 ft | 300 kts | 40° |
| 2026-05-04 04:04 | 34.85880 | -112.50564 | 9308 ft | 311 kts | 40° |
| 2026-05-04 04:05 | 34.87539 | -112.48890 | 9274 ft | 307 kts | 49° |
| 2026-05-04 04:05 | 34.88662 | -112.46780 | 9125 ft | 291 kts | 76° |
| 2026-05-04 04:05 | 34.88902 | -112.44432 | 8962 ft | 273 kts | 103° |
| 2026-05-04 04:05 | 34.88287 | -112.42357 | 8649 ft | 257 kts | 132° |
| 2026-05-04 04:06 | 34.87102 | -112.40797 | 8346 ft | 246 kts | 142° |
| 2026-05-04 04:06 | 34.85819 | -112.39493 | 8028 ft | 235 kts | 150° |
| 2026-05-04 04:06 | 34.84459 | -112.38459 | 7714 ft | 226 kts | 154° |
| 2026-05-04 04:06 | 34.83111 | -112.37529 | 7401 ft | 219 kts | 155° |
| 2026-05-04 04:07 | 34.81816 | -112.36646 | 7409 ft | 205 kts | 155° |
| 2026-05-04 04:07 | 34.80603 | -112.35864 | 7342 ft | 190 kts | 158° |
| 2026-05-04 04:07 | 34.79456 | -112.35213 | 7286 ft | 173 kts | 159° |
| 2026-05-04 04:07 | 34.78392 | -112.34620 | 7274 ft | 165 kts | 160° |
| 2026-05-04 04:08 | 34.77346 | -112.34038 | 7281 ft | 165 kts | 159° |
| 2026-05-04 04:08 | 34.76296 | -112.33459 | 7149 ft | 165 kts | 160° |
| 2026-05-04 04:08 | 34.75250 | -112.32895 | 6951 ft | 163 kts | 167° |
| 2026-05-04 04:08 | 34.74167 | -112.32956 | 6796 ft | 158 kts | 204° |
| 2026-05-04 04:09 | 34.73233 | -112.33672 | 6682 ft | 159 kts | 218° |
| 2026-05-04 04:09 | 34.72385 | -112.34547 | 6500 ft | 159 kts | 222° |
| 2026-05-04 04:09 | 34.71559 | -112.35451 | 6289 ft | 158 kts | 221° |
| 2026-05-04 04:09 | 34.70737 | -112.36336 | 6088 ft | 158 kts | 221° |
| 2026-05-04 04:10 | 34.69910 | -112.37213 | 5882 ft | 157 kts | 221° |
| 2026-05-04 04:10 | 34.69087 | -112.38085 | 5689 ft | 157 kts | 221° |
| 2026-05-04 04:10 | 34.68265 | -112.38956 | 5490 ft | 156 kts | 221° |
| 2026-05-04 04:10 | 34.67449 | -112.39823 | 5294 ft | 156 kts | 221° |
| 2026-05-04 04:11 | 34.66634 | -112.40688 | 5089 ft | 155 kts | 221° |
| 2026-05-04 04:11 | 34.65831 | -112.41543 | 4987 ft | 148 kts | 221° |
| 2026-05-04 04:11 | 34.65214 | -112.42198 | 5012 ft | 48 kts | 221° |
| 2026-05-04 04:11 | 34.65073 | -112.42349 | 5018 ft | 15 kts | 245° |
| 2026-05-04 04:12 | 34.65122 | -112.42443 | 5016 ft | 10 kts | 302° |
| 2026-05-04 04:12 | 34.65099 | -112.42503 | 5017 ft | 6 kts | 219° |
| 2026-05-04 04:12 | 34.65082 | -112.42519 | 5019 ft | 0 kts | 219° |
| 2026-05-04 04:12 | 34.65052 | -112.42549 | 5021 ft | 8 kts | 221° |
| 2026-05-04 04:13 | 34.65016 | -112.42586 | 5022 ft | 4 kts | 221° |
| 2026-05-04 04:13 | 34.65001 | -112.42620 | 5023 ft | 6 kts | 274° |
| 2026-05-04 04:13 | 34.65031 | -112.42669 | 5024 ft | 8 kts | 320° |
| 2026-05-04 04:13 | 34.65065 | -112.42717 | 5024 ft | 6 kts | 285° |
| 2026-05-04 04:14 | 34.65061 | -112.42749 | 5025 ft | 1 kts | 254° |
| 2026-05-04 04:14 | 34.65056 | -112.42769 | 5026 ft | 2 kts | 255° |
| 2026-05-04 04:14 | 34.65056 | -112.42772 | 5026 ft | 0 kts | 255° |